ACA8098 CYXY-CYVR
Flight info
| Callsign | ACA8098 |
|---|---|
| Flight time | 2h 1m |
| Altitude | 39000 |
| Route | KODEM4 LESEX DCT 5630N13000W 5130N12500W DCT TRENA WHSLR8 |
| Aircraft | A321/M-SDE3FGHIRWY/LB1 |
Departure
| Time | 2026-05-05 13:13 |
|---|---|
| Airport | Whitehorse / Erik Nielsen International Airport (CYXY) |
Arrival
| Time | 2026-05-05 15:15 |
|---|---|
| Airport | Vancouver International Airport (CYVR) |
| Time | Latitude | Longitude | Altitude | Speed | Heading |
|---|---|---|---|---|---|
| 2026-05-05 12:49 | 60.71390 | -135.07500 | 2298 ft | 0 kts | 307° |
| 2026-05-05 13:06 | 60.71386 | -135.07483 | 2296 ft | 2 kts | 283° |
| 2026-05-05 13:06 | 60.71382 | -135.07452 | 2295 ft | 2 kts | 292° |
| 2026-05-05 13:06 | 60.71376 | -135.07425 | 2294 ft | 2 kts | 290° |
| 2026-05-05 13:07 | 60.71372 | -135.07396 | 2294 ft | 2 kts | 290° |
| 2026-05-05 13:07 | 60.71366 | -135.07367 | 2293 ft | 2 kts | 290° |
| 2026-05-05 13:07 | 60.71361 | -135.07338 | 2292 ft | 2 kts | 290° |
| 2026-05-05 13:07 | 60.71359 | -135.07321 | 2292 ft | 0 kts | 321° |
| 2026-05-05 13:08 | 60.71352 | -135.07315 | 2292 ft | 1 kts | 339° |
| 2026-05-05 13:09 | 60.71360 | -135.07320 | 2292 ft | 3 kts | 339° |
| 2026-05-05 13:10 | 60.71405 | -135.07356 | 2289 ft | 9 kts | 339° |
| 2026-05-05 13:10 | 60.71486 | -135.07420 | 2283 ft | 15 kts | 339° |
| 2026-05-05 13:10 | 60.71601 | -135.07507 | 2277 ft | 19 kts | 339° |
| 2026-05-05 13:10 | 60.71719 | -135.07599 | 2273 ft | 13 kts | 339° |
| 2026-05-05 13:11 | 60.71797 | -135.07658 | 2268 ft | 7 kts | 339° |
| 2026-05-05 13:11 | 60.71852 | -135.07700 | 2265 ft | 6 kts | 342° |
| 2026-05-05 13:11 | 60.71902 | -135.07638 | 2256 ft | 8 kts | 66° |
| 2026-05-05 13:11 | 60.71918 | -135.07541 | 2247 ft | 7 kts | 77° |
| 2026-05-05 13:12 | 60.71898 | -135.07465 | 2243 ft | 5 kts | 153° |
| 2026-05-05 13:12 | 60.71894 | -135.07461 | 2243 ft | 0 kts | 156° |
| 2026-05-05 13:12 | 60.71768 | -135.07358 | 2249 ft | 54 kts | 159° |
| 2026-05-05 13:12 | 60.71191 | -135.06915 | 2290 ft | 119 kts | 160° |
| 2026-05-05 13:13 | 60.70294 | -135.06157 | 2503 ft | 154 kts | 158° |
| 2026-05-05 13:13 | 60.69266 | -135.05370 | 3193 ft | 159 kts | 161° |
| 2026-05-05 13:13 | 60.68229 | -135.04640 | 3959 ft | 160 kts | 163° |
| 2026-05-05 13:13 | 60.67169 | -135.03919 | 4415 ft | 169 kts | 163° |
| 2026-05-05 13:14 | 60.66011 | -135.03093 | 4746 ft | 186 kts | 161° |
| 2026-05-05 13:14 | 60.64736 | -135.02112 | 5115 ft | 203 kts | 160° |
| 2026-05-05 13:14 | 60.63328 | -135.00926 | 5357 ft | 228 kts | 159° |
| 2026-05-05 13:14 | 60.61799 | -134.99712 | 5895 ft | 240 kts | 160° |
| 2026-05-05 13:15 | 60.60213 | -134.98489 | 6559 ft | 249 kts | 160° |
| 2026-05-05 13:15 | 60.58591 | -134.97244 | 7281 ft | 256 kts | 161° |
| 2026-05-05 13:15 | 60.56934 | -134.95972 | 8120 ft | 258 kts | 162° |
| 2026-05-05 13:15 | 60.55262 | -134.94693 | 8996 ft | 259 kts | 163° |
| 2026-05-05 13:16 | 60.53576 | -134.93407 | 9861 ft | 260 kts | 163° |
| 2026-05-05 13:16 | 60.51873 | -134.92111 | 10646 ft | 264 kts | 164° |
| 2026-05-05 13:16 | 60.50015 | -134.90715 | 11142 ft | 281 kts | 165° |
| 2026-05-05 13:16 | 60.48172 | -134.89325 | 11847 ft | 287 kts | 165° |
| 2026-05-05 13:17 | 60.46241 | -134.87859 | 12678 ft | 290 kts | 165° |
| 2026-05-05 13:17 | 60.44311 | -134.86398 | 13440 ft | 293 kts | 165° |
| 2026-05-05 13:17 | 60.42409 | -134.84958 | 14187 ft | 296 kts | 165° |
| 2026-05-05 13:17 | 60.40473 | -134.83501 | 14896 ft | 300 kts | 165° |
| 2026-05-05 13:18 | 60.38513 | -134.82022 | 15569 ft | 304 kts | 165° |
| 2026-05-05 13:18 | 60.36549 | -134.80545 | 16216 ft | 308 kts | 165° |
| 2026-05-05 13:18 | 60.34519 | -134.79019 | 16859 ft | 312 kts | 165° |
| 2026-05-05 13:18 | 60.32497 | -134.77496 | 17472 ft | 315 kts | 165° |
| 2026-05-05 13:19 | 60.30451 | -134.75958 | 18067 ft | 319 kts | 165° |
| 2026-05-05 13:19 | 60.28365 | -134.74396 | 18617 ft | 324 kts | 165° |
| 2026-05-05 13:19 | 60.26257 | -134.72815 | 19180 ft | 328 kts | 165° |
| 2026-05-05 13:19 | 60.24117 | -134.71211 | 19779 ft | 330 kts | 165° |
| 2026-05-05 13:20 | 60.21947 | -134.69591 | 20376 ft | 333 kts | 165° |
| 2026-05-05 13:20 | 60.19793 | -134.67990 | 20936 ft | 336 kts | 165° |
| 2026-05-05 13:20 | 60.17589 | -134.66345 | 21492 ft | 340 kts | 165° |
| 2026-05-05 13:20 | 60.15344 | -134.64594 | 22031 ft | 345 kts | 162° |
| 2026-05-05 13:21 | 60.13185 | -134.62431 | 22560 ft | 352 kts | 157° |
| 2026-05-05 13:21 | 60.11122 | -134.59805 | 23044 ft | 360 kts | 151° |
| 2026-05-05 13:21 | 60.09087 | -134.56807 | 23563 ft | 364 kts | 150° |
| 2026-05-05 13:21 | 60.07076 | -134.53790 | 24082 ft | 367 kts | 150° |
| 2026-05-05 13:22 | 60.05033 | -134.50720 | 24576 ft | 369 kts | 150° |
| 2026-05-05 13:22 | 60.02985 | -134.47644 | 25137 ft | 371 kts | 150° |
| 2026-05-05 13:22 | 60.00944 | -134.44591 | 25669 ft | 372 kts | 150° |
| 2026-05-05 13:22 | 59.98874 | -134.41504 | 26166 ft | 374 kts | 150° |
| 2026-05-05 13:23 | 59.96778 | -134.38385 | 26638 ft | 377 kts | 150° |
| 2026-05-05 13:23 | 59.94675 | -134.35263 | 27084 ft | 380 kts | 150° |
| 2026-05-05 13:23 | 59.92570 | -134.32141 | 27567 ft | 382 kts | 151° |
| 2026-05-05 13:23 | 59.90428 | -134.28967 | 28014 ft | 384 kts | 152° |
| 2026-05-05 13:24 | 59.88315 | -134.25845 | 28457 ft | 386 kts | 152° |
| 2026-05-05 13:24 | 59.86156 | -134.22662 | 28870 ft | 389 kts | 151° |
| 2026-05-05 13:24 | 59.83982 | -134.19458 | 29268 ft | 392 kts | 151° |
| 2026-05-05 13:24 | 59.81777 | -134.16211 | 29668 ft | 395 kts | 151° |
| 2026-05-05 13:25 | 59.79581 | -134.12990 | 30057 ft | 398 kts | 152° |
| 2026-05-05 13:25 | 59.77370 | -134.09749 | 30458 ft | 400 kts | 152° |
| 2026-05-05 13:25 | 59.75137 | -134.06480 | 30847 ft | 402 kts | 152° |
| 2026-05-05 13:25 | 59.72877 | -134.03177 | 31200 ft | 405 kts | 152° |
| 2026-05-05 13:26 | 59.70629 | -133.99898 | 31522 ft | 409 kts | 152° |
| 2026-05-05 13:26 | 59.68318 | -133.96535 | 31850 ft | 412 kts | 152° |
| 2026-05-05 13:26 | 59.66028 | -133.93208 | 32213 ft | 414 kts | 152° |
| 2026-05-05 13:26 | 59.63709 | -133.89838 | 32556 ft | 416 kts | 152° |
| 2026-05-05 13:27 | 59.61382 | -133.86465 | 32831 ft | 420 kts | 152° |
| 2026-05-05 13:27 | 59.59034 | -133.83075 | 33167 ft | 421 kts | 152° |
| 2026-05-05 13:27 | 59.56679 | -133.79668 | 33630 ft | 420 kts | 152° |
| 2026-05-05 13:27 | 59.54359 | -133.76318 | 34063 ft | 419 kts | 152° |
| 2026-05-05 13:28 | 59.52017 | -133.72948 | 34441 ft | 418 kts | 152° |
| 2026-05-05 13:28 | 59.49661 | -133.69568 | 34749 ft | 418 kts | 153° |
| 2026-05-05 13:28 | 59.47320 | -133.66217 | 35043 ft | 419 kts | 152° |
| 2026-05-05 13:28 | 59.44982 | -133.62875 | 35331 ft | 419 kts | 153° |
| 2026-05-05 13:29 | 59.42630 | -133.59514 | 35625 ft | 419 kts | 153° |
| 2026-05-05 13:29 | 59.40293 | -133.56181 | 35899 ft | 419 kts | 153° |
| 2026-05-05 13:29 | 59.37964 | -133.52867 | 36128 ft | 420 kts | 153° |
| 2026-05-05 13:29 | 59.35588 | -133.49493 | 36443 ft | 420 kts | 153° |
| 2026-05-05 13:30 | 59.33248 | -133.46173 | 36791 ft | 419 kts | 153° |
| 2026-05-05 13:30 | 59.30910 | -133.42862 | 37107 ft | 419 kts | 153° |
| 2026-05-05 13:30 | 59.28565 | -133.39546 | 37363 ft | 420 kts | 153° |
| 2026-05-05 13:30 | 59.26179 | -133.36182 | 37827 ft | 421 kts | 153° |
| 2026-05-05 13:31 | 59.23828 | -133.32872 | 38014 ft | 422 kts | 154° |
| 2026-05-05 13:31 | 59.21453 | -133.29538 | 38176 ft | 423 kts | 154° |
| 2026-05-05 13:31 | 59.19084 | -133.26250 | 38383 ft | 421 kts | 155° |
| 2026-05-05 13:31 | 59.16664 | -133.23025 | 38561 ft | 421 kts | 155° |
| 2026-05-05 13:32 | 59.14260 | -133.19859 | 38690 ft | 422 kts | 155° |
| 2026-05-05 13:32 | 59.11827 | -133.16664 | 38821 ft | 424 kts | 155° |
| 2026-05-05 13:32 | 59.06949 | -133.10257 | 38906 ft | 426 kts | 155° |
| 2026-05-05 13:33 | 59.02053 | -133.03827 | 38918 ft | 427 kts | 155° |
| 2026-05-05 13:33 | 58.97156 | -132.97420 | 38924 ft | 428 kts | 154° |
| 2026-05-05 13:34 | 58.92235 | -132.90993 | 38923 ft | 429 kts | 155° |
| 2026-05-05 13:34 | 58.87304 | -132.84578 | 38910 ft | 430 kts | 154° |
| 2026-05-05 13:35 | 58.82338 | -132.78140 | 38931 ft | 430 kts | 155° |
| 2026-05-05 13:35 | 58.77380 | -132.71739 | 38951 ft | 432 kts | 154° |
| 2026-05-05 13:36 | 58.72384 | -132.65309 | 38955 ft | 432 kts | 154° |
| 2026-05-05 13:36 | 58.67411 | -132.58928 | 38935 ft | 432 kts | 155° |
| 2026-05-05 13:37 | 58.62381 | -132.52502 | 38932 ft | 433 kts | 154° |
| 2026-05-05 13:37 | 58.57339 | -132.46081 | 38936 ft | 433 kts | 154° |
| 2026-05-05 13:38 | 58.52355 | -132.39755 | 38943 ft | 433 kts | 154° |
| 2026-05-05 13:38 | 58.47365 | -132.33446 | 38953 ft | 434 kts | 155° |
| 2026-05-05 13:39 | 58.42355 | -132.27130 | 38970 ft | 434 kts | 155° |
| 2026-05-05 13:39 | 58.37336 | -132.20827 | 38979 ft | 433 kts | 155° |
| 2026-05-05 13:40 | 58.32326 | -132.14557 | 38988 ft | 435 kts | 155° |
| 2026-05-05 13:40 | 58.27282 | -132.08269 | 39000 ft | 436 kts | 155° |
| 2026-05-05 13:41 | 58.22241 | -132.02000 | 39004 ft | 435 kts | 155° |
| 2026-05-05 13:41 | 58.17186 | -131.95735 | 39009 ft | 435 kts | 155° |
| 2026-05-05 13:42 | 58.12134 | -131.89500 | 39007 ft | 437 kts | 155° |
| 2026-05-05 13:42 | 58.07046 | -131.83240 | 39003 ft | 437 kts | 155° |
| 2026-05-05 13:43 | 58.01980 | -131.77026 | 39003 ft | 436 kts | 155° |
| 2026-05-05 13:43 | 57.96909 | -131.70834 | 39003 ft | 438 kts | 155° |
| 2026-05-05 13:44 | 57.91825 | -131.64642 | 38991 ft | 438 kts | 155° |
| 2026-05-05 13:44 | 57.86713 | -131.58440 | 38978 ft | 438 kts | 155° |
| 2026-05-05 13:45 | 57.81619 | -131.52280 | 38982 ft | 439 kts | 155° |
| 2026-05-05 13:45 | 57.76488 | -131.46100 | 38994 ft | 440 kts | 155° |
| 2026-05-05 13:46 | 57.71380 | -131.39966 | 38975 ft | 440 kts | 155° |
| 2026-05-05 13:46 | 57.66230 | -131.33798 | 38977 ft | 440 kts | 156° |
| 2026-05-05 13:47 | 57.61107 | -131.27683 | 39012 ft | 439 kts | 156° |
| 2026-05-05 13:47 | 57.55982 | -131.21591 | 39037 ft | 439 kts | 156° |
| 2026-05-05 13:48 | 57.50849 | -131.15509 | 39016 ft | 440 kts | 156° |
| 2026-05-05 13:48 | 57.45726 | -131.09460 | 39007 ft | 440 kts | 156° |
| 2026-05-05 13:49 | 57.40579 | -131.03406 | 39005 ft | 440 kts | 155° |
| 2026-05-05 13:49 | 57.35429 | -130.97362 | 39017 ft | 440 kts | 155° |
| 2026-05-05 13:50 | 57.30241 | -130.91303 | 39032 ft | 442 kts | 155° |
| 2026-05-05 13:50 | 57.25060 | -130.85269 | 39042 ft | 444 kts | 155° |
| 2026-05-05 13:51 | 57.19864 | -130.79231 | 39027 ft | 443 kts | 155° |
| 2026-05-05 13:51 | 57.14666 | -130.73215 | 39004 ft | 443 kts | 155° |
| 2026-05-05 13:52 | 57.09452 | -130.67204 | 38999 ft | 444 kts | 155° |
| 2026-05-05 13:52 | 57.04250 | -130.61223 | 39011 ft | 443 kts | 155° |
| 2026-05-05 13:53 | 56.99073 | -130.55292 | 39032 ft | 444 kts | 155° |
| 2026-05-05 13:53 | 56.93845 | -130.49321 | 39054 ft | 445 kts | 155° |
| 2026-05-05 13:54 | 56.88549 | -130.43295 | 39046 ft | 445 kts | 155° |
| 2026-05-05 13:54 | 56.83302 | -130.37347 | 39029 ft | 446 kts | 155° |
| 2026-05-05 13:55 | 56.78035 | -130.31390 | 39028 ft | 445 kts | 155° |
| 2026-05-05 13:55 | 56.72823 | -130.25517 | 39033 ft | 445 kts | 155° |
| 2026-05-05 13:56 | 56.67551 | -130.19597 | 39029 ft | 446 kts | 155° |
| 2026-05-05 13:56 | 56.62297 | -130.13716 | 39026 ft | 446 kts | 155° |
| 2026-05-05 13:57 | 56.57014 | -130.07822 | 39027 ft | 447 kts | 155° |
| 2026-05-05 13:57 | 56.51779 | -130.02002 | 39044 ft | 447 kts | 155° |
| 2026-05-05 13:58 | 56.46515 | -129.96065 | 39063 ft | 448 kts | 154° |
| 2026-05-05 13:58 | 56.41283 | -129.90033 | 39043 ft | 449 kts | 154° |
| 2026-05-05 13:59 | 56.33416 | -129.81009 | 39018 ft | 448 kts | 154° |
| 2026-05-05 14:00 | 56.26443 | -129.73056 | 39010 ft | 448 kts | 154° |
| 2026-05-05 14:00 | 56.20290 | -129.66075 | 39000 ft | 448 kts | 154° |
| 2026-05-05 14:01 | 56.15056 | -129.60156 | 38998 ft | 449 kts | 154° |
| 2026-05-05 14:01 | 56.09783 | -129.54210 | 38993 ft | 450 kts | 154° |
| 2026-05-05 14:02 | 56.04521 | -129.48302 | 38995 ft | 451 kts | 153° |
| 2026-05-05 14:02 | 55.99232 | -129.42375 | 38997 ft | 450 kts | 154° |
| 2026-05-05 14:03 | 55.93940 | -129.36470 | 39002 ft | 451 kts | 154° |
| 2026-05-05 14:03 | 55.88627 | -129.30562 | 39005 ft | 451 kts | 154° |
| 2026-05-05 14:04 | 55.83299 | -129.24654 | 39006 ft | 451 kts | 154° |
| 2026-05-05 14:04 | 55.77993 | -129.18787 | 39007 ft | 450 kts | 154° |
| 2026-05-05 14:05 | 55.72697 | -129.12956 | 39007 ft | 452 kts | 154° |
| 2026-05-05 14:05 | 55.67350 | -129.07086 | 39007 ft | 452 kts | 154° |
| 2026-05-05 14:06 | 55.62026 | -129.01257 | 39006 ft | 453 kts | 154° |
| 2026-05-05 14:06 | 55.56710 | -128.95459 | 39005 ft | 453 kts | 154° |
| 2026-05-05 14:07 | 55.51340 | -128.89619 | 39004 ft | 453 kts | 154° |
| 2026-05-05 14:07 | 55.46019 | -128.83852 | 39004 ft | 454 kts | 154° |
| 2026-05-05 14:08 | 55.40672 | -128.78075 | 39002 ft | 454 kts | 154° |
| 2026-05-05 14:08 | 55.35285 | -128.72273 | 39003 ft | 454 kts | 154° |
| 2026-05-05 14:09 | 55.29926 | -128.66519 | 39005 ft | 455 kts | 153° |
| 2026-05-05 14:09 | 55.24542 | -128.60759 | 39003 ft | 456 kts | 153° |
| 2026-05-05 14:10 | 55.19168 | -128.55025 | 39008 ft | 456 kts | 153° |
| 2026-05-05 14:10 | 55.13733 | -128.49249 | 39017 ft | 457 kts | 153° |
| 2026-05-05 14:11 | 55.08341 | -128.43535 | 39027 ft | 457 kts | 153° |
| 2026-05-05 14:11 | 55.02925 | -128.37810 | 39038 ft | 457 kts | 153° |
| 2026-05-05 14:12 | 54.97506 | -128.32106 | 39046 ft | 458 kts | 154° |
| 2026-05-05 14:12 | 54.92062 | -128.26392 | 39030 ft | 458 kts | 154° |
| 2026-05-05 14:13 | 54.86627 | -128.20706 | 39009 ft | 458 kts | 154° |
| 2026-05-05 14:13 | 54.81202 | -128.15048 | 39011 ft | 458 kts | 154° |
| 2026-05-05 14:14 | 54.75764 | -128.09393 | 39024 ft | 458 kts | 154° |
| 2026-05-05 14:14 | 54.70315 | -128.03746 | 39025 ft | 459 kts | 153° |
| 2026-05-05 14:15 | 54.64829 | -127.98078 | 39023 ft | 459 kts | 153° |
| 2026-05-05 14:15 | 54.59374 | -127.92459 | 39018 ft | 460 kts | 154° |
| 2026-05-05 14:16 | 54.53907 | -127.86844 | 39028 ft | 460 kts | 154° |
| 2026-05-05 14:16 | 54.48362 | -127.81171 | 39044 ft | 460 kts | 154° |
| 2026-05-05 14:17 | 54.42878 | -127.75580 | 39053 ft | 461 kts | 153° |
| 2026-05-05 14:17 | 54.37295 | -127.69903 | 39045 ft | 462 kts | 153° |
| 2026-05-05 14:18 | 54.31799 | -127.64333 | 39034 ft | 462 kts | 153° |
| 2026-05-05 14:18 | 54.26297 | -127.58772 | 39025 ft | 463 kts | 153° |
| 2026-05-05 14:19 | 54.20739 | -127.53174 | 39025 ft | 463 kts | 153° |
| 2026-05-05 14:19 | 54.15223 | -127.47633 | 39020 ft | 463 kts | 153° |
| 2026-05-05 14:20 | 54.09684 | -127.42091 | 39022 ft | 463 kts | 153° |
| 2026-05-05 14:20 | 54.04139 | -127.36556 | 39014 ft | 463 kts | 153° |
| 2026-05-05 14:21 | 53.98590 | -127.31033 | 39019 ft | 464 kts | 154° |
| 2026-05-05 14:21 | 53.93050 | -127.25542 | 39028 ft | 465 kts | 154° |
| 2026-05-05 14:22 | 53.87462 | -127.20020 | 39034 ft | 465 kts | 154° |
| 2026-05-05 14:22 | 53.81905 | -127.14542 | 39035 ft | 465 kts | 154° |
| 2026-05-05 14:23 | 53.76356 | -127.09093 | 39031 ft | 465 kts | 154° |
| 2026-05-05 14:23 | 53.70789 | -127.03639 | 39023 ft | 466 kts | 153° |
| 2026-05-05 14:24 | 53.65204 | -126.98183 | 39021 ft | 466 kts | 153° |
| 2026-05-05 14:24 | 53.59600 | -126.92725 | 39022 ft | 466 kts | 153° |
| 2026-05-05 14:25 | 53.54053 | -126.87338 | 39022 ft | 463 kts | 154° |
| 2026-05-05 14:25 | 53.48489 | -126.81955 | 39027 ft | 461 kts | 154° |
| 2026-05-05 14:26 | 53.42905 | -126.76584 | 39040 ft | 464 kts | 153° |
| 2026-05-05 14:26 | 53.37315 | -126.71211 | 39049 ft | 466 kts | 153° |
| 2026-05-05 14:27 | 53.31713 | -126.65839 | 39049 ft | 467 kts | 153° |
| 2026-05-05 14:27 | 53.26088 | -126.60461 | 39040 ft | 468 kts | 153° |
| 2026-05-05 14:28 | 53.20499 | -126.55135 | 39033 ft | 467 kts | 153° |
| 2026-05-05 14:28 | 53.14880 | -126.49796 | 39034 ft | 466 kts | 153° |
| 2026-05-05 14:29 | 53.09257 | -126.44472 | 39042 ft | 467 kts | 153° |
| 2026-05-05 14:29 | 53.03621 | -126.39150 | 39052 ft | 466 kts | 153° |
| 2026-05-05 14:30 | 52.97986 | -126.33849 | 39056 ft | 467 kts | 153° |
| 2026-05-05 14:30 | 52.92360 | -126.28570 | 39041 ft | 467 kts | 153° |
| 2026-05-05 14:31 | 52.86731 | -126.23302 | 39031 ft | 467 kts | 153° |
| 2026-05-05 14:31 | 52.81103 | -126.18053 | 39034 ft | 468 kts | 153° |
| 2026-05-05 14:32 | 52.75465 | -126.12809 | 39040 ft | 468 kts | 153° |
| 2026-05-05 14:32 | 52.69805 | -126.07562 | 39059 ft | 468 kts | 153° |
| 2026-05-05 14:33 | 52.64125 | -126.02311 | 39081 ft | 469 kts | 153° |
| 2026-05-05 14:33 | 52.58474 | -125.97104 | 39106 ft | 469 kts | 153° |
| 2026-05-05 14:34 | 52.52821 | -125.91908 | 39118 ft | 469 kts | 153° |
| 2026-05-05 14:34 | 52.47131 | -125.86696 | 39122 ft | 470 kts | 153° |
| 2026-05-05 14:35 | 52.41452 | -125.81510 | 39111 ft | 470 kts | 152° |
| 2026-05-05 14:35 | 52.35746 | -125.76313 | 39096 ft | 471 kts | 153° |
| 2026-05-05 14:36 | 52.30035 | -125.71125 | 39080 ft | 471 kts | 153° |
| 2026-05-05 14:36 | 52.24346 | -125.65974 | 39084 ft | 471 kts | 153° |
| 2026-05-05 14:37 | 52.18558 | -125.60752 | 39096 ft | 472 kts | 152° |
| 2026-05-05 14:37 | 52.12830 | -125.55596 | 39108 ft | 472 kts | 152° |
| 2026-05-05 14:38 | 52.07093 | -125.50452 | 39119 ft | 472 kts | 152° |
| 2026-05-05 14:38 | 52.01378 | -125.45338 | 39119 ft | 472 kts | 152° |
| 2026-05-05 14:39 | 51.95629 | -125.40208 | 39124 ft | 472 kts | 152° |
| 2026-05-05 14:39 | 51.89900 | -125.35115 | 39130 ft | 472 kts | 152° |
| 2026-05-05 14:40 | 51.84150 | -125.30014 | 39137 ft | 473 kts | 153° |
| 2026-05-05 14:40 | 51.78396 | -125.24927 | 39144 ft | 473 kts | 153° |
| 2026-05-05 14:41 | 51.72665 | -125.19871 | 39149 ft | 473 kts | 153° |
| 2026-05-05 14:41 | 51.66912 | -125.14813 | 39151 ft | 473 kts | 153° |
| 2026-05-05 14:42 | 51.61152 | -125.09763 | 39152 ft | 474 kts | 153° |
| 2026-05-05 14:42 | 51.55361 | -125.04700 | 39157 ft | 474 kts | 153° |
| 2026-05-05 14:43 | 51.49563 | -124.99731 | 39165 ft | 473 kts | 155° |
| 2026-05-05 14:43 | 51.43599 | -124.95318 | 39148 ft | 474 kts | 157° |
| 2026-05-05 14:44 | 51.37510 | -124.90874 | 39113 ft | 473 kts | 157° |
| 2026-05-05 14:44 | 51.31410 | -124.86428 | 39104 ft | 475 kts | 156° |
| 2026-05-05 14:45 | 51.25319 | -124.81995 | 39110 ft | 475 kts | 156° |
| 2026-05-05 14:45 | 51.19181 | -124.77540 | 39064 ft | 476 kts | 156° |
| 2026-05-05 14:46 | 51.16174 | -124.75364 | 38352 ft | 478 kts | 156° |
| 2026-05-05 14:46 | 51.13160 | -124.73184 | 37682 ft | 477 kts | 156° |
| 2026-05-05 14:46 | 51.10109 | -124.70981 | 37039 ft | 475 kts | 156° |
| 2026-05-05 14:46 | 51.07156 | -124.68853 | 36428 ft | 472 kts | 156° |
| 2026-05-05 14:47 | 51.04175 | -124.66708 | 35774 ft | 470 kts | 156° |
| 2026-05-05 14:47 | 51.01221 | -124.64584 | 35100 ft | 468 kts | 155° |
| 2026-05-05 14:47 | 50.98252 | -124.62453 | 34452 ft | 467 kts | 155° |
| 2026-05-05 14:47 | 50.95305 | -124.60339 | 33787 ft | 465 kts | 155° |
| 2026-05-05 14:48 | 50.92379 | -124.58242 | 33158 ft | 466 kts | 155° |
| 2026-05-05 14:48 | 50.89439 | -124.56139 | 32484 ft | 466 kts | 155° |
| 2026-05-05 14:48 | 50.86531 | -124.54062 | 31912 ft | 464 kts | 155° |
| 2026-05-05 14:48 | 50.83608 | -124.51977 | 31469 ft | 457 kts | 155° |
| 2026-05-05 14:49 | 50.80735 | -124.49931 | 30989 ft | 453 kts | 155° |
| 2026-05-05 14:49 | 50.77866 | -124.47890 | 30493 ft | 449 kts | 155° |
| 2026-05-05 14:49 | 50.75041 | -124.45881 | 29986 ft | 445 kts | 155° |
| 2026-05-05 14:49 | 50.72224 | -124.43882 | 29460 ft | 441 kts | 155° |
| 2026-05-05 14:50 | 50.69444 | -124.41911 | 28948 ft | 437 kts | 155° |
| 2026-05-05 14:50 | 50.66694 | -124.39964 | 28432 ft | 434 kts | 155° |
| 2026-05-05 14:50 | 50.63953 | -124.38025 | 27921 ft | 430 kts | 155° |
| 2026-05-05 14:50 | 50.61254 | -124.36121 | 27425 ft | 426 kts | 155° |
| 2026-05-05 14:51 | 50.58564 | -124.34222 | 26921 ft | 423 kts | 156° |
| 2026-05-05 14:51 | 50.55913 | -124.32355 | 26422 ft | 419 kts | 156° |
| 2026-05-05 14:51 | 50.53247 | -124.30481 | 25916 ft | 416 kts | 156° |
| 2026-05-05 14:51 | 50.50617 | -124.28635 | 25417 ft | 413 kts | 156° |
| 2026-05-05 14:52 | 50.48029 | -124.26820 | 24916 ft | 410 kts | 156° |
| 2026-05-05 14:52 | 50.45438 | -124.25005 | 24403 ft | 408 kts | 156° |
| 2026-05-05 14:52 | 50.42907 | -124.23153 | 23911 ft | 405 kts | 153° |
| 2026-05-05 14:52 | 50.40417 | -124.21123 | 23430 ft | 402 kts | 152° |
| 2026-05-05 14:53 | 50.37936 | -124.19075 | 22938 ft | 400 kts | 152° |
| 2026-05-05 14:53 | 50.35500 | -124.17062 | 22466 ft | 397 kts | 152° |
| 2026-05-05 14:53 | 50.33099 | -124.15083 | 22003 ft | 394 kts | 152° |
| 2026-05-05 14:53 | 50.30666 | -124.13081 | 21534 ft | 391 kts | 152° |
| 2026-05-05 14:54 | 50.28280 | -124.11119 | 21067 ft | 389 kts | 152° |
| 2026-05-05 14:54 | 50.25885 | -124.09154 | 20579 ft | 388 kts | 152° |
| 2026-05-05 14:54 | 50.23510 | -124.07209 | 20093 ft | 386 kts | 152° |
| 2026-05-05 14:54 | 50.21154 | -124.05281 | 19622 ft | 384 kts | 151° |
| 2026-05-05 14:55 | 50.18823 | -124.03374 | 19145 ft | 381 kts | 151° |
| 2026-05-05 14:55 | 50.16483 | -124.01463 | 18703 ft | 379 kts | 151° |
| 2026-05-05 14:55 | 50.14155 | -123.99564 | 18229 ft | 377 kts | 151° |
| 2026-05-05 14:55 | 50.11833 | -123.97671 | 17788 ft | 376 kts | 151° |
| 2026-05-05 14:56 | 50.09509 | -123.95779 | 17334 ft | 374 kts | 151° |
| 2026-05-05 14:56 | 50.07218 | -123.93916 | 16879 ft | 373 kts | 151° |
| 2026-05-05 14:56 | 50.04892 | -123.92027 | 16439 ft | 371 kts | 151° |
| 2026-05-05 14:56 | 50.02575 | -123.90147 | 15992 ft | 369 kts | 151° |
| 2026-05-05 14:57 | 50.00313 | -123.88317 | 15549 ft | 367 kts | 150° |
| 2026-05-05 14:57 | 49.98070 | -123.86503 | 15112 ft | 365 kts | 150° |
| 2026-05-05 14:57 | 49.95813 | -123.84679 | 14658 ft | 364 kts | 150° |
| 2026-05-05 14:57 | 49.93599 | -123.82890 | 14217 ft | 361 kts | 150° |
| 2026-05-05 14:58 | 49.91386 | -123.81104 | 13771 ft | 358 kts | 150° |
| 2026-05-05 14:58 | 49.89183 | -123.79328 | 13332 ft | 355 kts | 151° |
| 2026-05-05 14:58 | 49.87011 | -123.77578 | 12892 ft | 352 kts | 151° |
| 2026-05-05 14:58 | 49.84840 | -123.75832 | 12452 ft | 349 kts | 151° |
| 2026-05-05 14:59 | 49.82711 | -123.74072 | 11998 ft | 345 kts | 148° |
| 2026-05-05 14:59 | 49.80704 | -123.71964 | 11518 ft | 341 kts | 140° |
| 2026-05-05 14:59 | 49.78946 | -123.69658 | 11330 ft | 328 kts | 137° |
| 2026-05-05 14:59 | 49.77261 | -123.67329 | 11116 ft | 319 kts | 136° |
| 2026-05-05 15:00 | 49.75686 | -123.65141 | 10991 ft | 293 kts | 136° |
| 2026-05-05 15:00 | 49.74670 | -123.63738 | 10913 ft | 281 kts | 136° |
| 2026-05-05 15:00 | 49.72732 | -123.61072 | 10917 ft | 280 kts | 136° |
| 2026-05-05 15:00 | 49.71257 | -123.59049 | 10944 ft | 281 kts | 136° |
| 2026-05-05 15:01 | 49.69745 | -123.56979 | 10895 ft | 282 kts | 137° |
| 2026-05-05 15:01 | 49.68280 | -123.54977 | 10539 ft | 283 kts | 137° |
| 2026-05-05 15:01 | 49.66822 | -123.52987 | 10175 ft | 281 kts | 137° |
| 2026-05-05 15:01 | 49.65362 | -123.51000 | 9828 ft | 278 kts | 137° |
| 2026-05-05 15:02 | 49.63912 | -123.49027 | 9506 ft | 276 kts | 137° |
| 2026-05-05 15:02 | 49.62467 | -123.47115 | 9171 ft | 274 kts | 143° |
| 2026-05-05 15:02 | 49.60775 | -123.45854 | 8831 ft | 272 kts | 165° |
| 2026-05-05 15:02 | 49.58904 | -123.45386 | 8517 ft | 270 kts | 173° |
| 2026-05-05 15:03 | 49.57052 | -123.45077 | 8167 ft | 270 kts | 174° |
| 2026-05-05 15:03 | 49.55200 | -123.44774 | 7829 ft | 269 kts | 174° |
| 2026-05-05 15:03 | 49.53349 | -123.44452 | 7485 ft | 268 kts | 173° |
| 2026-05-05 15:03 | 49.51485 | -123.44117 | 7117 ft | 267 kts | 173° |
| 2026-05-05 15:04 | 49.49648 | -123.43780 | 6770 ft | 266 kts | 173° |
| 2026-05-05 15:04 | 49.47822 | -123.43444 | 6412 ft | 265 kts | 173° |
| 2026-05-05 15:04 | 49.45973 | -123.43159 | 6066 ft | 264 kts | 178° |
| 2026-05-05 15:04 | 49.44144 | -123.43297 | 5855 ft | 257 kts | 188° |
| 2026-05-05 15:05 | 49.40680 | -123.44154 | 5268 ft | 254 kts | 190° |
| 2026-05-05 15:05 | 49.38928 | -123.44615 | 4943 ft | 253 kts | 189° |
| 2026-05-05 15:05 | 49.37186 | -123.45065 | 4634 ft | 251 kts | 189° |
| 2026-05-05 15:06 | 49.35435 | -123.45514 | 4320 ft | 249 kts | 190° |
| 2026-05-05 15:06 | 49.33882 | -123.46471 | 4064 ft | 234 kts | 222° |
| 2026-05-05 15:06 | 49.33074 | -123.48514 | 3890 ft | 225 kts | 258° |
| 2026-05-05 15:06 | 49.33102 | -123.50884 | 3741 ft | 224 kts | 281° |
| 2026-05-05 15:07 | 49.33415 | -123.53277 | 3560 ft | 224 kts | 282° |
| 2026-05-05 15:07 | 49.33588 | -123.55660 | 3368 ft | 224 kts | 262° |
| 2026-05-05 15:07 | 49.32882 | -123.57732 | 3196 ft | 225 kts | 219° |
| 2026-05-05 15:07 | 49.31438 | -123.58671 | 3030 ft | 226 kts | 185° |
| 2026-05-05 15:08 | 49.29775 | -123.58540 | 2981 ft | 250 kts | 167° |
| 2026-05-05 15:08 | 49.28095 | -123.57520 | 2972 ft | 260 kts | 149° |
| 2026-05-05 15:08 | 49.26532 | -123.56065 | 2975 ft | 257 kts | 146° |
| 2026-05-05 15:08 | 49.25118 | -123.54607 | 2953 ft | 231 kts | 135° |
| 2026-05-05 15:09 | 49.24259 | -123.52640 | 2939 ft | 209 kts | 109° |
| 2026-05-05 15:09 | 49.23909 | -123.50609 | 2939 ft | 192 kts | 97° |
| 2026-05-05 15:09 | 49.23741 | -123.48663 | 2932 ft | 176 kts | 95° |
| 2026-05-05 15:09 | 49.23590 | -123.46834 | 2967 ft | 174 kts | 96° |
| 2026-05-05 15:10 | 49.23414 | -123.44999 | 2964 ft | 173 kts | 97° |
| 2026-05-05 15:10 | 49.23218 | -123.43190 | 2938 ft | 174 kts | 98° |
| 2026-05-05 15:10 | 49.23005 | -123.41351 | 2794 ft | 172 kts | 98° |
| 2026-05-05 15:10 | 49.22789 | -123.39540 | 2597 ft | 168 kts | 98° |
| 2026-05-05 15:11 | 49.22579 | -123.37797 | 2354 ft | 152 kts | 98° |
| 2026-05-05 15:11 | 49.22400 | -123.36295 | 2114 ft | 138 kts | 98° |
| 2026-05-05 15:11 | 49.22237 | -123.34917 | 1904 ft | 128 kts | 99° |
| 2026-05-05 15:11 | 49.22076 | -123.33572 | 1747 ft | 127 kts | 99° |
| 2026-05-05 15:12 | 49.21920 | -123.32248 | 1593 ft | 126 kts | 100° |
| 2026-05-05 15:12 | 49.21769 | -123.30939 | 1437 ft | 126 kts | 99° |
| 2026-05-05 15:12 | 49.21621 | -123.29627 | 1276 ft | 125 kts | 99° |
| 2026-05-05 15:12 | 49.21472 | -123.28327 | 1104 ft | 124 kts | 99° |
| 2026-05-05 15:13 | 49.21318 | -123.27032 | 927 ft | 123 kts | 100° |
| 2026-05-05 15:13 | 49.21160 | -123.25735 | 772 ft | 122 kts | 101° |
| 2026-05-05 15:13 | 49.21027 | -123.24461 | 609 ft | 122 kts | 99° |
| 2026-05-05 15:13 | 49.20885 | -123.23180 | 440 ft | 121 kts | 100° |
| 2026-05-05 15:14 | 49.20739 | -123.21922 | 288 ft | 121 kts | 100° |
| 2026-05-05 15:14 | 49.20589 | -123.20675 | 131 ft | 120 kts | 101° |
| 2026-05-05 15:14 | 49.20438 | -123.19438 | 22 ft | 112 kts | 99° |
| 2026-05-05 15:14 | 49.20332 | -123.18470 | 19 ft | 66 kts | 99° |
| 2026-05-05 15:15 | 49.20276 | -123.17987 | 19 ft | 34 kts | 101° |
| 2026-05-05 15:15 | 49.20234 | -123.17750 | 19 ft | 19 kts | 115° |
| 2026-05-05 15:15 | 49.20191 | -123.17638 | 19 ft | 8 kts | 129° |
| 2026-05-05 15:15 | 49.20151 | -123.17562 | 18 ft | 10 kts | 130° |
| 2026-05-05 15:16 | 49.20100 | -123.17472 | 17 ft | 12 kts | 131° |
| 2026-05-05 15:16 | 49.20047 | -123.17378 | 16 ft | 9 kts | 131° |
| 2026-05-05 15:16 | 49.19998 | -123.17390 | 15 ft | 9 kts | 253° |
| 2026-05-05 15:16 | 49.20009 | -123.17509 | 15 ft | 13 kts | 281° |
| 2026-05-05 15:17 | 49.20028 | -123.17663 | 16 ft | 16 kts | 280° |
| 2026-05-05 15:17 | 49.20050 | -123.17844 | 16 ft | 18 kts | 281° |
| 2026-05-05 15:17 | 49.20072 | -123.18047 | 19 ft | 19 kts | 280° |
| 2026-05-05 15:17 | 49.20097 | -123.18259 | 17 ft | 16 kts | 279° |
| 2026-05-05 15:18 | 49.20111 | -123.18396 | 18 ft | 11 kts | 281° |
| 2026-05-05 15:18 | 49.20100 | -123.18488 | 17 ft | 10 kts | 217° |
| 2026-05-05 15:18 | 49.20015 | -123.18520 | 16 ft | 15 kts | 189° |
| 2026-05-05 15:18 | 49.19903 | -123.18550 | 15 ft | 17 kts | 191° |
| 2026-05-05 15:19 | 49.19780 | -123.18587 | 15 ft | 17 kts | 198° |
| 2026-05-05 15:19 | 49.19691 | -123.18675 | 15 ft | 13 kts | 203° |
| 2026-05-05 15:19 | 49.19615 | -123.18699 | 15 ft | 9 kts | 189° |
| 2026-05-05 15:19 | 49.19583 | -123.18687 | 15 ft | 5 kts | 130° |
| 2026-05-05 15:20 | 49.19574 | -123.18636 | 16 ft | 3 kts | 100° |
| 2026-05-05 15:20 | 49.19572 | -123.18617 | 16 ft | 0 kts | 99° |